createdAt,value
2019-02-05T00:01:37.917Z,4.80
2019-02-05T00:04:28.255Z,4.80
2019-02-05T00:07:18.222Z,4.80
2019-02-05T00:10:08.790Z,4.80
2019-02-05T00:12:58.893Z,4.80
2019-02-05T00:15:49.183Z,4.80
2019-02-05T00:18:39.316Z,4.70
2019-02-05T00:21:32.603Z,4.70
2019-02-05T00:24:22.623Z,4.70
2019-02-05T00:27:12.626Z,4.70
2019-02-05T00:30:02.615Z,4.70
2019-02-05T00:32:52.945Z,4.60
2019-02-05T00:35:43.221Z,4.60
2019-02-05T00:38:33.395Z,4.60
2019-02-05T00:41:23.843Z,4.70
2019-02-05T00:44:13.626Z,4.60
2019-02-05T00:47:03.333Z,4.60
2019-02-05T00:49:53.871Z,4.60
2019-02-05T00:52:43.753Z,4.70
2019-02-05T00:55:33.694Z,4.70
2019-02-05T00:58:24.144Z,4.70
2019-02-05T01:01:15.488Z,4.70
2019-02-05T01:04:06.092Z,4.70
2019-02-05T01:06:55.695Z,4.80
2019-02-05T01:09:45.470Z,4.80
2019-02-05T01:12:35.236Z,4.80
2019-02-05T01:15:25.802Z,4.80
2019-02-05T01:18:15.606Z,4.80
2019-02-05T01:21:05.570Z,4.80
2019-02-05T01:23:56.724Z,4.80
2019-02-05T01:26:46.943Z,4.80
2019-02-05T01:29:37.136Z,4.80
2019-02-05T01:32:27.112Z,4.90
2019-02-05T01:35:17.284Z,4.90
2019-02-05T01:38:06.911Z,4.90
2019-02-05T01:40:56.926Z,4.90
2019-02-05T01:43:47.293Z,4.90
2019-02-05T01:46:38.942Z,4.90
2019-02-05T01:49:28.846Z,4.90
2019-02-05T01:52:19.292Z,4.90
2019-02-05T01:55:10.674Z,4.90
2019-02-05T01:58:01.343Z,4.90
2019-02-05T02:00:54.207Z,4.90
2019-02-05T02:03:44.681Z,4.90
2019-02-05T02:06:34.905Z,5.00
2019-02-05T02:09:26.522Z,5.00
2019-02-05T02:12:17.083Z,5.00
2019-02-05T02:15:08.123Z,5.00
2019-02-05T02:17:58.635Z,5.00
2019-02-05T02:20:48.444Z,5.10
2019-02-05T02:23:38.044Z,5.10
2019-02-05T02:26:28.013Z,5.10
2019-02-05T02:29:17.605Z,5.10
2019-02-05T02:32:07.306Z,5.20
2019-02-05T02:34:57.383Z,5.10
2019-02-05T02:37:47.743Z,5.20
2019-02-05T02:40:38.566Z,5.20
2019-02-05T02:43:28.565Z,5.30
2019-02-05T02:46:18.510Z,5.30
2019-02-05T02:49:08.626Z,5.30
2019-02-05T02:51:58.821Z,5.30
2019-02-05T02:54:49.006Z,5.30
2019-02-05T02:57:39.072Z,5.30
2019-02-05T03:00:28.763Z,5.40
2019-02-05T03:03:18.234Z,5.40
2019-02-05T03:06:08.293Z,5.40
2019-02-05T03:08:58.182Z,5.40
2019-02-05T03:11:48.873Z,5.40
2019-02-05T03:14:38.386Z,5.40
2019-02-05T03:17:28.155Z,5.40
2019-02-05T03:20:18.765Z,5.50
2019-02-05T03:23:08.065Z,5.50
2019-02-05T03:25:58.303Z,5.50
2019-02-05T03:28:47.966Z,5.50
2019-02-05T03:31:37.987Z,5.50
2019-02-05T03:34:28.066Z,5.60
2019-02-05T03:37:17.923Z,5.50
2019-02-05T03:40:16.917Z,5.50
2019-02-05T03:43:06.674Z,5.60
2019-02-05T03:45:58.595Z,5.60
2019-02-05T03:48:50.335Z,5.60
2019-02-05T03:51:52.516Z,5.60
2019-02-05T03:55:38.600Z,5.60
2019-02-05T03:59:04.144Z,5.60
2019-02-05T04:02:43.784Z,5.60
2019-02-05T04:06:07.972Z,5.60
2019-02-05T04:09:38.916Z,5.70
2019-02-05T04:13:19.005Z,5.70
2019-02-05T04:16:45.107Z,5.70
2019-02-05T04:20:23.933Z,5.70
2019-02-05T04:23:52.255Z,5.70
2019-02-05T04:27:45.174Z,5.70
2019-02-05T04:30:55.856Z,5.80
2019-02-05T04:34:18.632Z,5.80
2019-02-05T04:37:25.586Z,5.80
2019-02-05T04:40:40.475Z,5.80
2019-02-05T04:44:08.135Z,5.80
2019-02-05T04:47:14.454Z,5.80
2019-02-05T04:51:03.452Z,5.80
2019-02-05T04:54:12.392Z,5.90
2019-02-05T04:57:31.002Z,5.80
2019-02-05T05:00:57.893Z,5.80
2019-02-05T05:04:11.412Z,5.80
2019-02-05T05:07:41.463Z,5.90
2019-02-05T05:10:31.976Z,5.80
2019-02-05T05:13:22.361Z,5.80
2019-02-05T05:16:14.293Z,5.90
2019-02-05T05:19:05.294Z,5.90
2019-02-05T05:21:55.835Z,5.90
2019-02-05T05:24:46.096Z,5.80
2019-02-05T05:27:35.852Z,5.80
2019-02-05T05:30:25.764Z,5.80
2019-02-05T05:33:15.172Z,5.80
2019-02-05T05:36:05.471Z,5.70
2019-02-05T05:38:55.172Z,5.70
2019-02-05T05:41:45.034Z,5.70
2019-02-05T05:44:34.851Z,5.80
2019-02-05T05:47:24.905Z,5.80
2019-02-05T05:50:16.032Z,5.80
2019-02-05T05:53:26.394Z,5.70
2019-02-05T05:56:16.626Z,5.80
2019-02-05T05:59:07.332Z,5.80
2019-02-05T06:01:57.210Z,5.80
2019-02-05T06:04:47.636Z,5.80
2019-02-05T06:07:37.691Z,5.80
2019-02-05T06:10:28.228Z,5.80
2019-02-05T06:13:21.007Z,5.80
2019-02-05T06:16:10.835Z,5.80
2019-02-05T06:19:00.253Z,5.80
2019-02-05T06:21:50.356Z,5.90
2019-02-05T06:24:40.648Z,5.80
2019-02-05T06:27:30.394Z,5.80
2019-02-05T06:30:20.636Z,5.90
2019-02-05T06:33:12.522Z,5.90
2019-02-05T06:36:02.738Z,5.80
2019-02-05T06:38:56.299Z,5.90
2019-02-05T06:41:45.861Z,5.90
2019-02-05T06:44:35.651Z,5.90
2019-02-05T06:47:25.802Z,5.90
2019-02-05T06:50:19.314Z,5.90
2019-02-05T06:53:09.313Z,6.00
2019-02-05T06:55:59.562Z,5.90
2019-02-05T06:58:49.404Z,5.90
2019-02-05T07:01:39.574Z,5.90
2019-02-05T07:04:29.641Z,5.90
2019-02-05T07:07:19.783Z,6.00
2019-02-05T07:10:12.835Z,6.00
2019-02-05T07:13:02.423Z,6.00
2019-02-05T07:15:52.259Z,6.00
2019-02-05T07:18:42.257Z,6.00
2019-02-05T07:21:32.625Z,6.00
2019-02-05T07:24:23.168Z,6.00
2019-02-05T07:27:13.460Z,6.00
2019-02-05T07:30:03.506Z,6.00
2019-02-05T07:32:53.886Z,6.10
2019-02-05T07:35:45.279Z,6.00
2019-02-05T07:38:34.876Z,6.10
2019-02-05T07:41:24.570Z,6.10
2019-02-05T07:44:15.538Z,6.10
2019-02-05T07:47:05.990Z,6.10
2019-02-05T07:49:56.480Z,6.10
2019-02-05T07:52:46.690Z,6.10
2019-02-05T07:55:36.649Z,6.10
2019-02-05T07:58:27.906Z,6.10
2019-02-05T08:01:18.427Z,6.20
2019-02-05T08:04:08.781Z,6.20
2019-02-05T08:07:00.422Z,6.20
2019-02-05T08:09:50.841Z,6.20
2019-02-05T08:12:40.951Z,6.20
2019-02-05T08:15:33.069Z,6.20
2019-02-05T08:18:23.702Z,6.30
2019-02-05T08:21:14.450Z,6.30
2019-02-05T08:24:06.866Z,6.30
2019-02-05T08:26:58.920Z,6.30
2019-02-05T08:29:49.053Z,6.30
2019-02-05T08:32:39.339Z,6.40
2019-02-05T08:35:35.245Z,6.40
2019-02-05T08:38:26.955Z,6.40
2019-02-05T08:41:17.344Z,6.40
2019-02-05T08:44:07.792Z,6.50
2019-02-05T08:46:57.960Z,6.50
2019-02-05T08:49:48.122Z,6.60
2019-02-05T08:52:41.379Z,6.60
2019-02-05T08:55:31.958Z,6.60
2019-02-05T08:58:30.721Z,6.60
2019-02-05T09:01:14.506Z,6.60
2019-02-05T09:04:06.123Z,6.60
2019-02-05T09:06:56.280Z,6.70
2019-02-05T09:09:46.530Z,6.70
2019-02-05T09:12:36.264Z,6.80
2019-02-05T09:15:29.387Z,6.80
2019-02-05T09:18:17.339Z,6.80
2019-02-05T09:21:07.587Z,6.80
2019-02-05T09:23:57.809Z,6.80
2019-02-05T09:26:47.600Z,6.80
2019-02-05T09:29:37.537Z,6.80
2019-02-05T09:32:34.781Z,6.90
2019-02-05T09:35:19.247Z,6.90
2019-02-05T09:38:09.521Z,6.90
2019-02-05T09:40:59.418Z,7.00
2019-02-05T09:43:49.490Z,7.00
2019-02-05T09:46:39.369Z,7.00
2019-02-05T09:49:29.420Z,7.10
2019-02-05T09:52:19.166Z,7.10
2019-02-05T09:55:10.849Z,7.10
2019-02-05T09:58:00.857Z,7.10
2019-02-05T10:00:50.522Z,7.10
2019-02-05T10:03:40.770Z,7.20
2019-02-05T10:06:30.595Z,7.20
2019-02-05T10:09:20.507Z,7.20
2019-02-05T10:12:10.417Z,7.20
2019-02-05T10:15:00.471Z,7.20
2019-02-05T10:17:50.157Z,7.20
2019-02-05T10:20:40.600Z,7.20
2019-02-05T10:23:30.716Z,7.30
2019-02-05T10:26:20.776Z,7.30
2019-02-05T10:29:10.578Z,7.40
2019-02-05T10:32:00.555Z,7.40
2019-02-05T10:34:50.556Z,7.40
2019-02-05T10:37:41.640Z,7.40
2019-02-05T10:40:31.686Z,7.40
2019-02-05T10:43:21.481Z,7.40
2019-02-05T10:46:12.657Z,7.50
2019-02-05T10:49:03.389Z,7.50
2019-02-05T10:51:53.517Z,7.50
2019-02-05T10:54:43.199Z,7.50
2019-02-05T10:57:33.419Z,7.60
2019-02-05T11:00:28.452Z,7.60
2019-02-05T11:03:18.527Z,7.60
2019-02-05T11:06:08.086Z,7.60
2019-02-05T11:08:58.089Z,7.60
2019-02-05T11:11:48.097Z,7.70
2019-02-05T11:14:38.890Z,7.60
2019-02-05T11:17:29.137Z,7.60
2019-02-05T11:20:21.340Z,7.60
2019-02-05T11:23:11.347Z,7.60
2019-02-05T11:26:01.470Z,7.60
2019-02-05T11:28:51.507Z,7.60
2019-02-05T11:31:41.901Z,7.60
2019-02-05T11:34:31.939Z,7.70
2019-02-05T11:37:22.342Z,7.60
2019-02-05T11:40:14.787Z,7.60
2019-02-05T11:43:04.987Z,7.60
2019-02-05T11:45:54.617Z,7.60
2019-02-05T11:48:44.719Z,7.60
2019-02-05T11:51:35.060Z,7.60
2019-02-05T11:54:25.496Z,7.70
2019-02-05T11:57:15.477Z,7.80
2019-02-05T12:00:06.360Z,7.80
2019-02-05T12:02:56.300Z,7.70
2019-02-05T12:05:45.826Z,7.80
2019-02-05T12:08:35.617Z,7.80
2019-02-05T12:11:25.555Z,7.80
2019-02-05T12:14:15.798Z,7.90
2019-02-05T12:17:05.761Z,7.90
2019-02-05T12:19:55.849Z,7.90
2019-02-05T12:22:46.797Z,7.90
2019-02-05T12:25:37.168Z,7.90
2019-02-05T12:28:26.942Z,7.90
2019-02-05T12:31:16.669Z,7.80
2019-02-05T12:34:06.717Z,7.80
2019-02-05T12:36:56.549Z,7.80
2019-02-05T12:39:46.447Z,7.80
2019-02-05T12:42:36.519Z,7.80
2019-02-05T12:45:27.938Z,7.80
2019-02-05T12:48:17.591Z,7.90
2019-02-05T12:51:10.840Z,7.90
2019-02-05T12:54:00.670Z,7.90
2019-02-05T12:56:51.023Z,7.90
2019-02-05T12:59:41.074Z,7.90
2019-02-05T13:02:30.871Z,7.80
2019-02-05T13:05:20.899Z,7.80
2019-02-05T13:08:10.929Z,7.80
2019-02-05T13:11:00.794Z,7.80
2019-02-05T13:13:50.777Z,7.80
2019-02-05T13:16:40.701Z,7.90
2019-02-05T13:19:30.656Z,7.90
2019-02-05T13:22:20.771Z,7.80
2019-02-05T13:25:15.237Z,7.80
2019-02-05T13:28:06.531Z,7.90
2019-02-05T13:31:07.365Z,7.90
2019-02-05T13:33:48.462Z,7.90
2019-02-05T13:36:37.982Z,7.90
2019-02-05T13:39:29.316Z,8.00
2019-02-05T13:42:19.595Z,8.00
2019-02-05T13:45:11.508Z,8.00
2019-02-05T13:48:01.638Z,8.10
2019-02-05T13:50:52.437Z,8.10
2019-02-05T13:53:42.824Z,8.10
2019-02-05T13:56:33.530Z,8.10
2019-02-05T13:59:24.831Z,8.20
2019-02-05T14:02:15.145Z,8.10
2019-02-05T14:05:06.010Z,8.20
2019-02-05T14:07:56.698Z,8.20
2019-02-05T14:10:47.853Z,8.20
2019-02-05T14:13:38.144Z,8.20
2019-02-05T14:16:29.361Z,8.30
2019-02-05T14:19:19.788Z,8.20
2019-02-05T14:22:09.974Z,8.20
2019-02-05T14:24:59.970Z,8.10
2019-02-05T14:27:50.958Z,8.10
2019-02-05T14:30:50.120Z,8.00
2019-02-05T14:33:40.329Z,8.00
2019-02-05T14:36:32.869Z,8.00
2019-02-05T14:39:23.189Z,8.00
2019-02-05T14:42:13.239Z,8.00
2019-02-05T14:45:03.786Z,8.00
2019-02-05T14:47:54.356Z,8.00
2019-02-05T14:50:45.008Z,8.10
2019-02-05T14:53:34.989Z,8.00
2019-02-05T14:56:26.567Z,8.00
2019-02-05T14:59:27.550Z,8.00
2019-02-05T15:02:17.840Z,7.90
2019-02-05T15:05:09.040Z,7.90
2019-02-05T15:08:21.159Z,7.90
2019-02-05T15:11:11.228Z,7.90
2019-02-05T15:14:00.687Z,7.90
2019-02-05T15:16:52.890Z,7.90
2019-02-05T15:19:43.251Z,7.80
2019-02-05T15:22:33.899Z,7.80
2019-02-05T15:25:24.019Z,7.70
2019-02-05T15:28:13.545Z,7.80
2019-02-05T15:31:03.249Z,7.70
2019-02-05T15:34:02.523Z,7.70
2019-02-05T15:36:52.626Z,7.70
2019-02-05T15:39:42.365Z,7.70
2019-02-05T15:42:32.174Z,7.70
2019-02-05T15:45:22.386Z,7.60
2019-02-05T15:48:11.996Z,7.60
2019-02-05T15:51:01.639Z,7.60
2019-02-05T15:53:51.557Z,7.60
2019-02-05T15:56:41.761Z,7.60
2019-02-05T15:59:32.006Z,7.50
2019-02-05T16:02:22.177Z,7.50
2019-02-05T16:05:12.764Z,7.50
2019-02-05T16:08:02.651Z,7.40
2019-02-05T16:10:52.476Z,7.50
2019-02-05T16:13:42.119Z,7.40
2019-02-05T16:16:32.092Z,7.40
2019-02-05T16:19:22.010Z,7.40
2019-02-05T16:22:12.324Z,7.40
2019-02-05T16:25:02.250Z,7.40
2019-02-05T16:27:51.957Z,7.40
2019-02-05T16:30:44.866Z,7.40
2019-02-05T16:33:34.586Z,7.40
2019-02-05T16:36:24.280Z,7.40
2019-02-05T16:39:14.481Z,7.40
2019-02-05T16:42:05.061Z,7.40
2019-02-05T16:44:55.112Z,7.40
2019-02-05T16:47:45.129Z,7.40
2019-02-05T16:50:37.414Z,7.40
2019-02-05T16:53:27.341Z,7.40
2019-02-05T16:56:17.982Z,7.40
2019-02-05T16:59:07.889Z,7.30
2019-02-05T17:01:57.578Z,7.30
2019-02-05T17:04:47.511Z,7.30
2019-02-05T17:07:37.640Z,7.20
2019-02-05T17:10:27.770Z,7.20
2019-02-05T17:13:17.659Z,7.20
2019-02-05T17:16:07.309Z,7.30
2019-02-05T17:18:58.341Z,7.30
2019-02-05T17:21:48.169Z,7.20
2019-02-05T17:24:38.257Z,7.20
2019-02-05T17:27:27.790Z,7.20
2019-02-05T17:30:22.990Z,7.30
2019-02-05T17:33:12.739Z,7.20
2019-02-05T17:36:03.777Z,7.20
2019-02-05T17:38:54.138Z,7.20
2019-02-05T17:41:44.176Z,7.20
2019-02-05T17:44:34.419Z,7.20
2019-02-05T17:47:25.069Z,7.20
2019-02-05T17:50:15.369Z,7.20
2019-02-05T17:53:05.939Z,7.20
2019-02-05T17:55:55.897Z,7.10
2019-02-05T17:58:46.008Z,7.10
2019-02-05T18:01:37.470Z,7.00
2019-02-05T18:04:27.389Z,7.00
2019-02-05T18:07:17.390Z,7.00
2019-02-05T18:10:08.790Z,6.90
2019-02-05T18:12:58.493Z,6.80
2019-02-05T18:15:48.526Z,6.80
2019-02-05T18:18:39.076Z,6.70
2019-02-05T18:21:29.142Z,6.60
2019-02-05T18:24:19.258Z,6.70
2019-02-05T18:27:09.019Z,6.60
2019-02-05T18:29:58.769Z,6.50
2019-02-05T18:32:48.559Z,6.50
2019-02-05T18:35:38.820Z,6.50
2019-02-05T18:38:29.059Z,6.50
2019-02-05T18:41:19.045Z,6.50
2019-02-05T18:44:09.230Z,6.40
2019-02-05T18:46:59.301Z,6.40
2019-02-05T18:49:49.249Z,6.40
2019-02-05T18:52:40.286Z,6.30
2019-02-05T18:55:30.970Z,6.30
2019-02-05T18:58:20.827Z,6.30
2019-02-05T19:01:10.866Z,6.20
2019-02-05T19:04:00.906Z,6.20
2019-02-05T19:06:51.256Z,6.20
2019-02-05T19:09:40.975Z,6.20
2019-02-05T19:12:30.769Z,6.20
2019-02-05T19:15:22.946Z,6.10
2019-02-05T19:18:12.956Z,6.00
2019-02-05T19:21:02.819Z,6.00
2019-02-05T19:23:58.537Z,6.10
2019-02-05T19:26:51.679Z,6.00
2019-02-05T19:29:41.928Z,6.00
2019-02-05T19:32:32.028Z,6.00
2019-02-05T19:35:22.008Z,6.00
2019-02-05T19:38:13.498Z,6.00
2019-02-05T19:41:04.626Z,6.00
2019-02-05T19:43:54.331Z,6.00
2019-02-05T19:47:06.071Z,5.90
2019-02-05T19:49:58.583Z,5.90
2019-02-05T19:52:50.127Z,6.00
2019-02-05T19:55:39.961Z,5.90
2019-02-05T19:58:29.785Z,5.90
2019-02-05T20:01:19.549Z,5.90
2019-02-05T20:04:09.404Z,5.90
2019-02-05T20:06:59.709Z,5.90
2019-02-05T20:09:49.590Z,5.80
2019-02-05T20:12:39.579Z,5.80
2019-02-05T20:15:29.783Z,5.80
2019-02-05T20:18:19.519Z,5.80
2019-02-05T20:21:09.749Z,5.80
2019-02-05T20:23:59.853Z,5.80
2019-02-05T20:26:49.619Z,5.90
2019-02-05T20:29:39.779Z,5.90
2019-02-05T20:32:29.899Z,5.90
2019-02-05T20:35:19.800Z,5.90
2019-02-05T20:38:10.495Z,5.80
2019-02-05T20:41:00.843Z,5.90
2019-02-05T20:43:50.959Z,5.90
2019-02-05T20:46:41.060Z,5.90
2019-02-05T20:49:30.741Z,5.90
2019-02-05T20:52:20.976Z,5.90
2019-02-05T20:55:13.350Z,5.90
2019-02-05T20:58:03.439Z,5.90
2019-02-05T21:00:53.299Z,5.90
2019-02-05T21:03:43.341Z,5.90
2019-02-05T21:06:33.295Z,5.90
2019-02-05T21:09:23.567Z,5.90
2019-02-05T21:12:13.006Z,5.90
2019-02-05T21:15:02.719Z,5.90
2019-02-05T21:17:53.206Z,6.00
2019-02-05T21:20:42.636Z,6.00
2019-02-05T21:23:32.552Z,6.00
2019-02-05T21:26:22.717Z,6.00
2019-02-05T21:29:12.541Z,6.10
2019-02-05T21:32:03.106Z,6.00
2019-02-05T21:34:53.496Z,6.10
2019-02-05T21:37:43.587Z,6.10
2019-02-05T21:40:33.561Z,6.20
2019-02-05T21:43:23.580Z,6.20
2019-02-05T21:46:13.702Z,6.20
2019-02-05T21:49:03.480Z,6.20
2019-02-05T21:51:53.270Z,6.30
2019-02-05T21:54:43.249Z,6.30
2019-02-05T21:57:32.947Z,6.40
2019-02-05T22:00:31.400Z,6.40
2019-02-05T22:03:21.151Z,6.40
2019-02-05T22:06:11.023Z,6.40
2019-02-05T22:09:01.106Z,6.50
2019-02-05T22:11:52.476Z,6.50
2019-02-05T22:14:42.407Z,6.50
2019-02-05T22:17:32.692Z,6.50
2019-02-05T22:20:24.789Z,6.60
2019-02-05T22:23:14.718Z,6.60
2019-02-05T22:26:04.887Z,6.50
2019-02-05T22:28:54.667Z,6.60
2019-02-05T22:31:44.877Z,6.60
2019-02-05T22:34:39.260Z,6.60
2019-02-05T22:37:26.647Z,6.60
2019-02-05T22:40:17.339Z,6.60
2019-02-05T22:43:07.021Z,6.50
2019-02-05T22:45:56.960Z,6.60
2019-02-05T22:48:47.049Z,6.60
2019-02-05T22:51:37.038Z,6.60
2019-02-05T22:54:27.013Z,6.50
2019-02-05T22:57:17.190Z,6.60
2019-02-05T23:00:33.858Z,6.60
2019-02-05T23:03:46.566Z,6.60
2019-02-05T23:06:56.068Z,6.50
2019-02-05T23:09:52.647Z,6.50
2019-02-05T23:13:06.249Z,6.50
2019-02-05T23:15:55.971Z,6.50
2019-02-05T23:18:46.097Z,6.50
2019-02-05T23:21:36.999Z,6.50
2019-02-05T23:24:27.054Z,6.50
2019-02-05T23:27:16.923Z,6.40
2019-02-05T23:30:13.755Z,6.30
2019-02-05T23:33:03.352Z,6.30
2019-02-05T23:35:54.109Z,6.30
2019-02-05T23:39:05.654Z,6.20
2019-02-05T23:41:56.773Z,6.20
2019-02-05T23:44:46.951Z,6.10
2019-02-05T23:47:37.356Z,6.00
2019-02-05T23:50:27.253Z,6.00
2019-02-05T23:53:23.172Z,5.90
2019-02-05T23:56:25.263Z,5.80
2019-02-05T23:59:05.331Z,5.70
